createdAt,value
2018-03-29T00:00:19.044Z,6.18
2018-03-29T00:02:46.532Z,7.37
2018-03-29T00:05:14.431Z,6.60
2018-03-29T00:07:41.918Z,8.15
2018-03-29T00:10:09.429Z,8.20
2018-03-29T00:12:36.930Z,7.50
2018-03-29T00:15:04.452Z,7.57
2018-03-29T00:17:31.948Z,8.30
2018-03-29T00:19:59.475Z,8.13
2018-03-29T00:22:26.971Z,9.13
2018-03-29T00:24:54.454Z,7.45
2018-03-29T00:27:22.364Z,6.87
2018-03-29T00:29:49.888Z,6.97
2018-03-29T00:32:17.383Z,7.28
2018-03-29T00:34:44.888Z,6.80
2018-03-29T00:37:12.793Z,5.30
2018-03-29T00:39:40.288Z,5.70
2018-03-29T00:42:07.808Z,4.62
2018-03-29T00:44:35.311Z,5.95
2018-03-29T00:49:36.661Z,4.37
2018-03-29T00:52:04.151Z,4.75
2018-03-29T00:54:32.048Z,4.40
2018-03-29T00:56:59.539Z,4.30
2018-03-29T00:59:27.050Z,4.32
2018-03-29T01:01:54.532Z,4.47
2018-03-29T01:04:22.016Z,4.10
2018-03-29T01:06:49.519Z,4.05
2018-03-29T01:09:17.007Z,3.15
2018-03-29T01:11:44.503Z,3.72
2018-03-29T01:14:11.992Z,4.05
2018-03-29T01:16:39.483Z,4.82
2018-03-29T01:19:06.992Z,4.62
2018-03-29T01:21:34.511Z,8.27
2018-03-29T01:24:02.002Z,5.03
2018-03-29T01:26:29.901Z,5.03
2018-03-29T01:28:57.395Z,5.00
2018-03-29T01:31:24.895Z,4.82
2018-03-29T01:33:52.395Z,6.20
2018-03-29T01:36:19.881Z,6.03
2018-03-29T01:38:47.380Z,5.28
2018-03-29T01:41:14.883Z,4.78
2018-03-29T01:43:42.388Z,5.00
2018-03-29T01:46:09.944Z,4.28
2018-03-29T01:48:37.436Z,3.95
2018-03-29T01:51:04.952Z,4.18
2018-03-29T01:53:32.437Z,3.30
2018-03-29T01:55:59.953Z,3.30
2018-03-29T01:58:27.847Z,3.78
2018-03-29T02:00:55.402Z,4.12
2018-03-29T02:03:23.284Z,4.80
2018-03-29T02:05:50.771Z,4.70
2018-03-29T02:08:18.282Z,4.50
2018-03-29T02:10:45.776Z,5.10
2018-03-29T02:13:13.262Z,3.97
2018-03-29T02:15:40.775Z,3.50
2018-03-29T02:18:08.287Z,5.25
2018-03-29T02:20:36.171Z,6.32
2018-03-29T02:23:03.658Z,5.00
2018-03-29T02:25:31.163Z,4.85
2018-03-29T02:27:59.050Z,6.10
2018-03-29T02:30:26.604Z,4.95
2018-03-29T02:32:54.100Z,6.25
2018-03-29T02:35:21.591Z,6.25
2018-03-29T02:37:49.092Z,7.07
2018-03-29T02:40:16.587Z,7.35
2018-03-29T02:42:44.477Z,8.40
2018-03-29T02:45:12.241Z,4.95
2018-03-29T02:47:40.301Z,5.43
2018-03-29T02:50:07.858Z,5.80
2018-03-29T02:52:35.369Z,7.90
2018-03-29T02:55:02.876Z,6.20
2018-03-29T02:57:30.376Z,7.82
2018-03-29T02:59:58.089Z,7.35
2018-03-29T03:02:25.662Z,9.15
2018-03-29T03:04:53.160Z,7.65
2018-03-29T03:07:20.738Z,8.43
2018-03-29T03:09:48.420Z,8.55
2018-03-29T03:12:15.935Z,7.00
2018-03-29T03:14:43.588Z,5.85
2018-03-29T03:17:11.079Z,6.70
2018-03-29T03:19:38.566Z,6.90
2018-03-29T03:22:06.065Z,7.20
2018-03-29T03:24:33.551Z,6.97
2018-03-29T03:27:01.045Z,5.87
2018-03-29T03:29:28.949Z,6.93
2018-03-29T03:31:56.444Z,8.23
2018-03-29T03:34:24.016Z,6.22
2018-03-29T03:36:51.515Z,8.75
2018-03-29T03:39:19.111Z,10.05
2018-03-29T03:41:46.646Z,10.32
2018-03-29T03:44:14.186Z,8.18
2018-03-29T03:46:41.787Z,10.10
2018-03-29T03:49:10.213Z,8.60
2018-03-29T03:51:38.210Z,10.82
2018-03-29T03:54:07.464Z,8.95
2018-03-29T03:56:35.069Z,8.02
2018-03-29T03:59:02.774Z,9.35
2018-03-29T04:01:30.326Z,8.80
2018-03-29T04:04:00.025Z,9.98
2018-03-29T04:06:27.522Z,7.53
2018-03-29T04:08:55.480Z,10.45
2018-03-29T04:11:23.059Z,10.18
2018-03-29T04:13:50.552Z,9.43
2018-03-29T04:16:18.096Z,10.18
2018-03-29T04:18:45.606Z,8.13
2018-03-29T04:21:13.131Z,11.10
2018-03-29T04:23:40.646Z,9.43
2018-03-29T04:26:08.146Z,9.77
2018-03-29T04:28:35.690Z,10.07
2018-03-29T04:31:03.343Z,10.40
2018-03-29T04:33:31.304Z,12.00
2018-03-29T04:35:59.012Z,10.43
2018-03-29T04:38:26.587Z,11.30
2018-03-29T04:40:54.075Z,13.07
2018-03-29T04:43:21.595Z,11.48
2018-03-29T04:45:49.107Z,12.02
2018-03-29T04:48:16.664Z,13.48
2018-03-29T04:50:44.198Z,15.43
2018-03-29T04:53:11.819Z,11.90
2018-03-29T04:55:39.401Z,17.20
2018-03-29T04:58:07.302Z,13.93
2018-03-29T05:00:34.974Z,14.73
2018-03-29T05:03:03.012Z,14.50
2018-03-29T05:05:30.899Z,14.15
2018-03-29T05:07:58.408Z,10.23
2018-03-29T05:10:25.927Z,15.35
2018-03-29T05:12:53.437Z,17.87
2018-03-29T05:15:21.353Z,16.20
2018-03-29T05:17:48.891Z,13.18
2018-03-29T05:20:16.424Z,14.77
2018-03-29T05:22:44.374Z,11.83
2018-03-29T05:25:12.306Z,12.20
2018-03-29T05:27:39.808Z,13.52
2018-03-29T05:30:07.340Z,12.67
2018-03-29T05:32:34.920Z,14.48
2018-03-29T05:35:02.419Z,13.82
2018-03-29T05:37:30.172Z,12.30
2018-03-29T05:39:57.676Z,12.77
2018-03-29T05:42:25.666Z,12.52
2018-03-29T05:44:53.170Z,12.50
2018-03-29T05:47:20.752Z,12.77
2018-03-29T05:49:48.424Z,12.35
2018-03-29T05:52:16.016Z,13.23
2018-03-29T05:54:43.941Z,12.40
2018-03-29T05:57:11.507Z,12.45
2018-03-29T05:59:39.051Z,13.88
2018-03-29T06:02:06.556Z,14.75
2018-03-29T06:04:34.060Z,12.45
2018-03-29T06:07:01.611Z,14.75
2018-03-29T06:09:29.208Z,14.43
2018-03-29T06:11:56.713Z,13.50
2018-03-29T06:14:24.218Z,15.65
2018-03-29T06:16:51.719Z,16.43
2018-03-29T06:19:19.236Z,14.68
2018-03-29T06:21:46.756Z,17.93
2018-03-29T06:24:14.252Z,16.60
2018-03-29T06:26:41.750Z,17.48
2018-03-29T06:29:09.664Z,18.80
2018-03-29T06:31:37.163Z,15.32
2018-03-29T06:34:05.071Z,13.75
2018-03-29T06:36:32.600Z,18.67
2018-03-29T06:39:00.106Z,18.48
2018-03-29T06:41:27.627Z,17.00
2018-03-29T06:43:55.147Z,21.75
2018-03-29T06:46:22.660Z,18.98
2018-03-29T06:48:50.179Z,21.62
2018-03-29T06:51:18.123Z,20.33
2018-03-29T06:53:45.639Z,23.30
2018-03-29T06:56:13.151Z,24.90
2018-03-29T06:58:41.141Z,24.87
2018-03-29T07:01:08.656Z,28.60
2018-03-29T07:03:36.184Z,28.48
2018-03-29T07:06:03.741Z,26.40
2018-03-29T07:08:31.232Z,26.83
2018-03-29T07:10:58.764Z,33.70
2018-03-29T07:13:26.803Z,31.62
2018-03-29T07:15:54.319Z,30.00
2018-03-29T07:18:21.832Z,34.55
2018-03-29T07:20:49.409Z,34.17
2018-03-29T07:23:16.907Z,36.43
2018-03-29T07:25:44.435Z,33.63
2018-03-29T07:28:11.927Z,34.63
2018-03-29T07:30:39.901Z,40.80
2018-03-29T07:33:07.359Z,38.33
2018-03-29T07:35:35.255Z,43.27
2018-03-29T07:38:02.776Z,41.93
2018-03-29T07:40:30.667Z,39.00
2018-03-29T07:42:58.196Z,43.77
2018-03-29T07:45:26.240Z,44.60
2018-03-29T07:47:53.815Z,38.97
2018-03-29T07:50:21.790Z,44.80
2018-03-29T07:52:50.033Z,43.17
2018-03-29T07:55:17.659Z,42.30
2018-03-29T07:57:45.159Z,43.73
2018-03-29T08:00:12.729Z,45.90
2018-03-29T08:02:40.325Z,40.50
2018-03-29T08:05:08.008Z,42.27
2018-03-29T08:07:35.513Z,40.80
2018-03-29T08:10:03.051Z,43.70
2018-03-29T08:12:30.556Z,39.17
2018-03-29T08:14:58.452Z,42.33
2018-03-29T08:17:25.947Z,47.23
2018-03-29T08:19:53.446Z,37.77
2018-03-29T08:22:21.346Z,44.83
2018-03-29T08:24:48.885Z,29.63
2018-03-29T08:27:16.387Z,42.67
2018-03-29T08:29:43.888Z,34.23
2018-03-29T08:32:11.408Z,40.13
2018-03-29T08:34:38.911Z,38.60
2018-03-29T08:37:06.417Z,37.93
2018-03-29T08:39:33.926Z,38.70
2018-03-29T08:42:01.439Z,40.87
2018-03-29T08:44:28.959Z,45.20
2018-03-29T08:46:56.455Z,41.70
2018-03-29T08:49:23.951Z,41.17
2018-03-29T08:51:51.461Z,38.00
2018-03-29T08:54:24.783Z,41.63
2018-03-29T08:56:52.709Z,34.80
2018-03-29T08:59:20.232Z,36.23
2018-03-29T09:01:47.735Z,34.70
2018-03-29T09:04:15.238Z,34.20
2018-03-29T09:06:42.729Z,33.57
2018-03-29T09:09:10.233Z,28.60
2018-03-29T09:11:38.125Z,32.20
2018-03-29T09:14:05.644Z,34.43
2018-03-29T09:16:33.131Z,29.33
2018-03-29T09:19:00.662Z,34.03
2018-03-29T09:21:28.165Z,25.10
2018-03-29T09:23:55.662Z,30.63
2018-03-29T09:26:23.159Z,30.10
2018-03-29T09:28:50.678Z,31.33
2018-03-29T09:31:18.180Z,29.43
2018-03-29T09:33:45.711Z,26.10
2018-03-29T09:36:13.200Z,28.50
2018-03-29T09:38:40.723Z,27.33
2018-03-29T09:41:08.215Z,27.27
2018-03-29T09:43:35.720Z,25.13
2018-03-29T09:46:03.227Z,27.60
2018-03-29T09:48:30.735Z,27.47
2018-03-29T09:50:58.241Z,23.83
2018-03-29T09:53:25.746Z,29.53
2018-03-29T09:55:53.260Z,25.03
2018-03-29T09:58:20.773Z,27.10
2018-03-29T10:00:48.340Z,24.07
2018-03-29T10:03:15.856Z,24.73
2018-03-29T10:05:43.346Z,24.27
2018-03-29T10:08:10.856Z,24.27
2018-03-29T10:10:38.364Z,24.23
2018-03-29T10:13:06.012Z,18.80
2018-03-29T10:15:33.512Z,25.40
2018-03-29T10:18:01.037Z,23.70
2018-03-29T10:20:28.574Z,20.73
2018-03-29T10:22:56.072Z,22.80
2018-03-29T10:25:24.012Z,21.37
2018-03-29T10:27:51.534Z,21.87
2018-03-29T10:30:19.047Z,21.33
2018-03-29T10:32:46.934Z,21.67
2018-03-29T10:35:14.443Z,20.33
2018-03-29T10:37:42.105Z,20.70
2018-03-29T10:40:09.596Z,21.50
2018-03-29T10:42:37.501Z,21.97
2018-03-29T10:45:04.990Z,20.73
2018-03-29T10:47:35.877Z,21.93
2018-03-29T10:50:03.383Z,21.50
2018-03-29T10:52:30.936Z,25.23
2018-03-29T10:54:58.461Z,24.17
2018-03-29T10:57:25.959Z,23.70
2018-03-29T10:59:53.540Z,22.83
2018-03-29T11:02:21.092Z,23.23
2018-03-29T11:04:48.591Z,23.57
2018-03-29T11:07:16.084Z,23.87
2018-03-29T11:09:43.580Z,24.07
2018-03-29T11:12:11.479Z,24.20
2018-03-29T11:14:39.001Z,21.50
2018-03-29T11:17:06.900Z,23.97
2018-03-29T11:19:34.394Z,23.30
2018-03-29T11:22:01.905Z,21.73
2018-03-29T11:24:29.424Z,22.43
2018-03-29T11:26:56.936Z,23.00
2018-03-29T11:29:24.430Z,21.03
2018-03-29T11:31:51.918Z,20.33
2018-03-29T11:34:19.423Z,20.90
2018-03-29T11:36:46.915Z,21.40
2018-03-29T11:39:14.420Z,22.57
2018-03-29T11:41:41.938Z,19.17
2018-03-29T11:44:09.421Z,21.93
2018-03-29T11:46:36.930Z,21.00
2018-03-29T11:49:04.417Z,18.73
2018-03-29T11:51:32.332Z,19.73
2018-03-29T11:53:59.823Z,19.97
2018-03-29T11:56:27.311Z,20.43
2018-03-29T11:58:55.204Z,19.73
2018-03-29T12:01:22.682Z,19.97
2018-03-29T12:03:50.187Z,21.80
2018-03-29T12:06:18.061Z,18.53
2018-03-29T12:08:45.574Z,22.30
2018-03-29T12:11:13.083Z,20.17
2018-03-29T12:13:40.587Z,20.30
2018-03-29T12:16:08.140Z,18.03
2018-03-29T12:18:35.606Z,19.67
2018-03-29T12:21:03.104Z,18.60
2018-03-29T12:23:30.611Z,16.80
2018-03-29T12:25:58.099Z,17.37
2018-03-29T12:28:25.992Z,16.17
2018-03-29T12:30:53.482Z,17.43
2018-03-29T12:33:20.996Z,17.97
2018-03-29T12:35:48.883Z,20.70
2018-03-29T12:38:16.383Z,23.03
2018-03-29T12:40:43.884Z,25.07
2018-03-29T12:43:11.380Z,23.57
2018-03-29T12:45:38.883Z,22.57
2018-03-29T12:48:06.812Z,23.07
2018-03-29T12:50:34.299Z,24.90
2018-03-29T12:53:02.198Z,26.47
2018-03-29T12:55:42.709Z,25.60
2018-03-29T12:58:10.941Z,25.50
2018-03-29T13:00:38.482Z,26.80
2018-03-29T13:03:05.955Z,26.77
2018-03-29T13:05:33.455Z,25.07
2018-03-29T13:08:00.955Z,25.70
2018-03-29T13:10:28.443Z,24.60
2018-03-29T13:12:55.975Z,25.77
2018-03-29T13:15:23.485Z,24.47
2018-03-29T13:17:50.977Z,23.90
2018-03-29T13:20:18.485Z,22.70
2018-03-29T13:22:45.975Z,20.27
2018-03-29T13:25:13.929Z,24.40
2018-03-29T13:27:41.399Z,22.20
2018-03-29T13:30:09.292Z,22.70
2018-03-29T13:32:36.809Z,23.13
2018-03-29T13:35:04.719Z,23.17
2018-03-29T13:37:32.228Z,22.33
2018-03-29T13:39:59.733Z,20.70
2018-03-29T13:42:27.264Z,21.10
2018-03-29T13:44:55.181Z,19.30
2018-03-29T13:47:22.713Z,19.23
2018-03-29T13:49:50.338Z,21.10
2018-03-29T13:52:17.836Z,17.97
2018-03-29T13:54:45.336Z,19.13
2018-03-29T13:57:12.832Z,14.67
2018-03-29T13:59:40.743Z,13.60
2018-03-29T14:02:08.240Z,16.87
2018-03-29T14:04:35.741Z,15.27
2018-03-29T14:07:03.245Z,14.90
2018-03-29T14:09:30.756Z,16.13
2018-03-29T14:11:58.268Z,17.30
2018-03-29T14:14:25.779Z,17.03
2018-03-29T14:16:53.312Z,17.93
2018-03-29T14:19:20.809Z,16.60
2018-03-29T14:21:48.312Z,18.07
2018-03-29T14:24:16.213Z,16.50
2018-03-29T14:26:43.708Z,18.60
2018-03-29T14:29:11.213Z,18.80
2018-03-29T14:31:38.730Z,17.63
2018-03-29T14:34:06.231Z,21.80
2018-03-29T14:36:33.741Z,21.30
2018-03-29T14:39:01.647Z,20.03
2018-03-29T14:44:03.147Z,24.83
2018-03-29T14:46:30.662Z,23.00
2018-03-29T14:48:58.563Z,22.90
2018-03-29T14:51:26.060Z,21.83
2018-03-29T14:53:53.563Z,21.50
2018-03-29T14:56:21.055Z,18.57
2018-03-29T14:58:48.558Z,16.77
2018-03-29T15:01:16.479Z,18.33
2018-03-29T15:03:43.978Z,17.03
2018-03-29T15:06:17.481Z,14.63
2018-03-29T15:08:45.008Z,14.53
2018-03-29T15:11:14.508Z,13.73
2018-03-29T15:13:42.046Z,14.60
2018-03-29T15:16:09.548Z,13.33
2018-03-29T15:18:37.490Z,12.77
2018-03-29T15:21:05.053Z,12.93
2018-03-29T15:23:32.509Z,12.53
2018-03-29T15:26:00.004Z,13.73
2018-03-29T15:28:27.511Z,11.77
2018-03-29T15:30:55.002Z,12.53
2018-03-29T15:33:22.930Z,11.43
2018-03-29T15:35:50.430Z,12.67
2018-03-29T15:38:18.343Z,12.73
2018-03-29T15:40:45.884Z,11.07
2018-03-29T15:43:13.389Z,12.27
2018-03-29T15:45:40.918Z,10.57
2018-03-29T15:48:08.425Z,10.77
2018-03-29T15:50:36.342Z,8.73
2018-03-29T15:53:03.840Z,12.37
2018-03-29T15:55:31.338Z,12.17
2018-03-29T15:57:58.847Z,12.93
2018-03-29T16:00:26.359Z,12.30
2018-03-29T16:02:53.875Z,12.77
2018-03-29T16:05:21.767Z,12.73
2018-03-29T16:07:49.268Z,13.33
2018-03-29T16:10:16.767Z,11.90
2018-03-29T16:12:44.713Z,11.70
2018-03-29T16:15:12.332Z,12.07
2018-03-29T16:17:39.828Z,13.53
2018-03-29T16:20:07.336Z,13.33
2018-03-29T16:22:34.843Z,12.70
2018-03-29T16:25:02.776Z,12.77
2018-03-29T16:27:30.304Z,11.77
2018-03-29T16:29:57.854Z,12.50
2018-03-29T16:32:25.750Z,12.43
2018-03-29T16:34:53.271Z,12.53
2018-03-29T16:37:21.184Z,13.97
2018-03-29T16:39:48.733Z,13.57
2018-03-29T16:42:16.321Z,13.13
2018-03-29T16:44:43.834Z,12.60
2018-03-29T16:47:11.344Z,14.07
2018-03-29T16:49:38.848Z,12.83
2018-03-29T16:52:06.360Z,13.07
2018-03-29T16:54:33.900Z,13.63
2018-03-29T16:57:01.391Z,14.33
2018-03-29T16:59:29.321Z,13.07
2018-03-29T17:01:56.914Z,14.03
2018-03-29T17:04:24.445Z,14.60
2018-03-29T17:06:51.951Z,12.10
2018-03-29T17:09:19.889Z,14.47
2018-03-29T17:11:47.388Z,12.30
2018-03-29T17:14:14.924Z,13.20
2018-03-29T17:16:42.450Z,11.87
2018-03-29T17:19:09.963Z,12.30
2018-03-29T17:21:37.479Z,12.17
2018-03-29T17:24:04.991Z,12.63
2018-03-29T17:26:32.492Z,11.40
2018-03-29T17:29:00.027Z,11.80
2018-03-29T17:31:27.548Z,10.90
2018-03-29T17:33:55.045Z,10.50
2018-03-29T17:36:22.541Z,11.20
2018-03-29T17:38:50.448Z,10.83
2018-03-29T17:41:17.959Z,12.90
2018-03-29T17:43:45.458Z,12.00
2018-03-29T17:46:13.026Z,11.13
2018-03-29T17:48:40.556Z,12.03
2018-03-29T17:51:08.068Z,11.27
2018-03-29T17:53:35.600Z,12.13
2018-03-29T17:56:03.103Z,11.20
2018-03-29T17:58:31.002Z,11.80
2018-03-29T18:00:58.509Z,11.63
2018-03-29T18:03:26.008Z,11.67
2018-03-29T18:05:53.919Z,11.90
2018-03-29T18:08:21.485Z,11.60
2018-03-29T18:10:48.985Z,11.37
2018-03-29T18:13:16.616Z,15.50
2018-03-29T18:15:44.119Z,12.60
2018-03-29T18:18:11.636Z,14.23
2018-03-29T18:20:39.148Z,15.33
2018-03-29T18:23:06.648Z,15.50
2018-03-29T18:25:34.155Z,17.17
2018-03-29T18:28:01.663Z,17.10
2018-03-29T18:30:29.198Z,16.97
2018-03-29T18:32:56.744Z,15.97
2018-03-29T18:35:24.227Z,17.40
2018-03-29T18:37:51.729Z,16.17
2018-03-29T18:40:19.260Z,20.57
2018-03-29T18:42:46.751Z,18.97
2018-03-29T18:45:14.238Z,15.07
2018-03-29T18:47:41.741Z,16.40
2018-03-29T18:50:09.371Z,16.07
2018-03-29T18:52:37.599Z,16.83
2018-03-29T18:55:05.110Z,18.50
2018-03-29T18:57:33.480Z,15.70
2018-03-29T19:00:00.983Z,16.47
2018-03-29T19:02:28.477Z,16.13
2018-03-29T19:04:56.160Z,16.67
2018-03-29T19:07:23.660Z,15.10
2018-03-29T19:09:51.552Z,18.87
2018-03-29T19:12:19.081Z,15.27
2018-03-29T19:14:46.966Z,19.00
2018-03-29T19:17:14.479Z,17.70
2018-03-29T19:19:41.976Z,21.60
2018-03-29T19:22:09.549Z,18.53
2018-03-29T19:24:37.114Z,21.77
2018-03-29T19:27:04.630Z,21.50
2018-03-29T19:29:33.095Z,16.87
2018-03-29T19:32:00.592Z,19.47
2018-03-29T19:34:31.309Z,18.17
2018-03-29T19:36:58.818Z,22.60
2018-03-29T19:39:26.342Z,19.43
2018-03-29T19:41:53.852Z,20.23
2018-03-29T19:44:21.400Z,17.33
2018-03-29T19:46:48.891Z,17.67
2018-03-29T19:49:16.393Z,19.52
2018-03-29T19:51:43.920Z,17.70
2018-03-29T19:54:11.440Z,21.77
2018-03-29T19:56:38.959Z,23.13
2018-03-29T19:59:06.463Z,20.70
2018-03-29T20:01:33.959Z,23.03
2018-03-29T20:04:01.462Z,22.97
2018-03-29T20:06:28.983Z,21.97
2018-03-29T20:08:56.511Z,20.58
2018-03-29T20:11:24.406Z,23.87
2018-03-29T20:13:51.931Z,21.50
2018-03-29T20:16:19.824Z,23.53
2018-03-29T20:18:47.328Z,23.30
2018-03-29T20:21:14.889Z,24.23
2018-03-29T20:23:42.376Z,24.47
2018-03-29T20:26:09.882Z,22.77
2018-03-29T20:28:37.399Z,21.27
2018-03-29T20:31:04.919Z,20.35
2018-03-29T20:33:32.440Z,22.13
2018-03-29T20:35:59.943Z,22.92
2018-03-29T20:38:27.525Z,23.05
2018-03-29T20:40:55.484Z,25.85
2018-03-29T20:43:23.397Z,22.20
2018-03-29T20:45:50.907Z,23.17
2018-03-29T20:48:18.855Z,21.73
2018-03-29T20:50:46.388Z,21.75
2018-03-29T20:53:13.907Z,24.17
2018-03-29T20:55:41.836Z,22.25
2018-03-29T20:58:09.323Z,25.02
2018-03-29T21:00:37.232Z,26.00
2018-03-29T21:03:04.760Z,23.10
2018-03-29T21:05:32.682Z,22.62
2018-03-29T21:08:00.194Z,24.42
2018-03-29T21:10:28.543Z,28.85
2018-03-29T21:12:56.490Z,26.60
2018-03-29T21:15:24.132Z,29.85
2018-03-29T21:17:51.642Z,26.42
2018-03-29T21:20:19.548Z,27.50
2018-03-29T21:22:47.164Z,28.58
2018-03-29T21:25:15.080Z,24.48
2018-03-29T21:27:42.585Z,22.52
2018-03-29T21:30:10.496Z,28.73
2018-03-29T21:32:38.017Z,29.73
2018-03-29T21:35:05.623Z,27.73
2018-03-29T21:37:33.115Z,25.98
2018-03-29T21:40:00.623Z,25.75
2018-03-29T21:42:28.205Z,26.45
2018-03-29T21:44:55.687Z,26.02
2018-03-29T21:47:23.642Z,28.75
2018-03-29T21:49:51.134Z,29.65
2018-03-29T21:52:19.047Z,28.60
2018-03-29T21:54:46.565Z,29.98
2018-03-29T21:57:14.468Z,27.73
2018-03-29T21:59:41.974Z,30.58
2018-03-29T22:02:09.894Z,32.78
2018-03-29T22:04:37.442Z,33.30
2018-03-29T22:07:04.942Z,28.73
2018-03-29T22:09:32.442Z,29.35
2018-03-29T22:11:59.953Z,28.67
2018-03-29T22:14:27.464Z,26.55
2018-03-29T22:16:54.974Z,33.90
2018-03-29T22:19:22.500Z,29.55
2018-03-29T22:21:50.007Z,28.55
2018-03-29T22:24:17.908Z,30.83
2018-03-29T22:26:45.467Z,32.40
2018-03-29T22:29:13.011Z,30.75
2018-03-29T22:31:40.538Z,34.42
2018-03-29T22:34:08.505Z,34.63
2018-03-29T22:36:36.412Z,30.62
2018-03-29T22:39:03.939Z,32.00
2018-03-29T22:41:31.868Z,34.10
2018-03-29T22:43:59.391Z,30.92
2018-03-29T22:46:26.918Z,33.45
2018-03-29T22:48:54.519Z,33.55
2018-03-29T22:51:22.468Z,35.25
2018-03-29T22:53:51.786Z,31.50
2018-03-29T22:56:19.429Z,29.23
2018-03-29T22:58:46.963Z,29.08
2018-03-29T23:01:14.882Z,31.05
2018-03-29T23:03:42.375Z,28.27
2018-03-29T23:06:09.900Z,31.20
2018-03-29T23:08:37.383Z,34.30
2018-03-29T23:11:04.941Z,28.27
2018-03-29T23:13:32.453Z,34.13
2018-03-29T23:16:00.030Z,34.08
2018-03-29T23:18:27.528Z,36.85
2018-03-29T23:20:55.090Z,33.40
2018-03-29T23:23:22.612Z,39.25
2018-03-29T23:25:50.133Z,37.42
2018-03-29T23:28:17.657Z,39.65
2018-03-29T23:30:45.199Z,36.58
2018-03-29T23:33:12.709Z,38.55
2018-03-29T23:35:40.241Z,34.15
2018-03-29T23:38:07.789Z,35.33
2018-03-29T23:40:35.318Z,39.08
2018-03-29T23:43:03.971Z,38.30
2018-03-29T23:45:31.542Z,37.42
2018-03-29T23:47:59.096Z,31.80
2018-03-29T23:50:26.606Z,35.72
2018-03-29T23:52:54.108Z,33.28
2018-03-29T23:55:21.619Z,39.17
2018-03-29T23:57:55.128Z,42.22
